Time;durP1;ratioP1;P1;durP2;ratioP2;P2;SDS_P1;SDS_P2;PMS_P1;PMS_P2;Temp;Humidity;BMP_temperature;BMP_pressure;BME280_temperature;BME280_humidity;BME280_pressure;Samples;Min_cycle;Max_cycle;Signal;HPM_P1;HPM_P2
2021/05/26 00:02:14;;;;;;;1.98;1.77;;;21.00;58.00;;;;;;5097820;28;20031;-35
2021/05/26 00:04:40;;;;;;;2.08;1.77;;;21.10;57.60;;;;;;5106086;28;20020;-35
2021/05/26 00:07:05;;;;;;;2.15;1.92;;;21.10;57.80;;;;;;5092123;28;20035;-34
2021/05/26 00:09:31;;;;;;;1.80;1.70;;;21.20;57.40;;;;;;5087094;28;20073;-34
2021/05/26 00:11:56;;;;;;;2.28;1.75;;;21.20;57.70;;;;;;5097749;28;20028;-34
2021/05/26 00:14:22;;;;;;;1.90;1.80;;;21.10;57.70;;;;;;5079571;28;20028;-34
2021/05/26 00:16:48;;;;;;;2.22;1.63;;;21.00;58.00;;;;;;5091322;28;20024;-35
2021/05/26 00:19:13;;;;;;;1.95;1.77;;;21.00;57.90;;;;;;5090997;28;20103;-35
2021/05/26 00:21:39;;;;;;;1.80;1.70;;;21.10;57.90;;;;;;5092076;28;20068;-34
2021/05/26 00:24:05;;;;;;;1.90;1.67;;;21.20;57.50;;;;;;5107333;28;20397;-34
2021/05/26 00:26:31;;;;;;;2.03;1.83;;;21.00;57.80;;;;;;5081806;28;20042;-35
2021/05/26 00:28:56;;;;;;;2.22;1.70;;;21.00;57.80;;;;;;5092437;28;20024;-37
2021/05/26 00:31:24;;;;;;;2.17;1.70;;;21.10;57.70;;;;;;5093434;28;20046;-34
2021/05/26 00:33:49;;;;;;;1.60;1.50;;;21.10;57.60;;;;;;5091857;28;20032;-34
2021/05/26 00:36:15;;;;;;;1.65;1.55;;;21.00;57.90;;;;;;5109282;28;20382;-35
2021/05/26 00:38:40;;;;;;;2.10;1.73;;;21.00;58.00;;;;;;5099366;28;20051;-39
2021/05/26 00:41:06;;;;;;;2.08;1.60;;;21.10;57.90;;;;;;5095970;28;20028;-34
2021/05/26 00:43:32;;;;;;;2.08;1.60;;;21.00;57.90;;;;;;5094278;28;20381;-34
2021/05/26 00:45:57;;;;;;;1.70;1.60;;;21.10;57.90;;;;;;5091810;28;20024;-34
2021/05/26 00:48:23;;;;;;;2.88;1.63;;;21.10;57.70;;;;;;5097498;28;20028;-34
2021/05/26 00:50:49;;;;;;;1.50;1.40;;;21.10;57.50;;;;;;5095173;28;20039;-34
2021/05/26 00:53:14;;;;;;;1.63;1.38;;;21.10;57.90;;;;;;5094226;28;20024;-34
2021/05/26 00:55:41;;;;;;;1.77;1.67;;;21.10;57.90;;;;;;5095842;28;20118;-34
2021/05/26 00:58:07;;;;;;;1.30;1.20;;;21.10;57.70;;;;;;5091919;28;20017;-33
2021/05/26 01:00:34;;;;;;;1.70;1.60;;;21.10;57.90;;;;;;5107507;28;20424;-38
2021/05/26 01:02:59;;;;;;;1.40;1.30;;;21.00;57.80;;;;;;5089772;28;20020;-42
2021/05/26 01:05:25;;;;;;;1.70;1.60;;;21.00;58.00;;;;;;5086596;28;20028;-36
2021/05/26 01:07:52;;;;;;;1.48;1.38;;;21.00;58.00;;;;;;5086244;28;20056;-35
2021/05/26 01:10:18;;;;;;;2.08;1.42;;;21.10;57.90;;;;;;5073197;28;20039;-34
2021/05/26 01:12:44;;;;;;;1.33;1.23;;;21.10;57.70;;;;;;5076184;28;20020;-35
2021/05/26 01:15:11;;;;;;;1.27;1.17;;;21.00;58.00;;;;;;5094524;28;20497;-33
2021/05/26 01:17:37;;;;;;;1.67;1.58;;;21.00;58.00;;;;;;5079574;28;20531;-34
2021/05/26 01:20:07;;;;;;;1.48;1.38;;;21.00;57.80;;;;;;5093603;28;21782;-34
2021/05/26 01:22:33;;;;;;;1.35;1.25;;;21.00;57.80;;;;;;5093325;28;20473;-33
2021/05/26 01:24:59;;;;;;;1.48;1.38;;;21.10;57.60;;;;;;5091751;28;20028;-34
2021/05/26 01:27:24;;;;;;;1.65;1.30;;;21.10;57.60;;;;;;5097362;28;20102;-34
2021/05/26 01:29:50;;;;;;;1.80;1.50;;;21.10;57.70;;;;;;5093023;28;20035;-33
2021/05/26 01:32:16;;;;;;;1.40;1.30;;;21.00;58.00;;;;;;5095747;28;20032;-34
2021/05/26 01:34:41;;;;;;;1.40;1.30;;;21.00;57.80;;;;;;5093409;28;20068;-33
2021/05/26 01:37:07;;;;;;;1.45;1.35;;;21.00;57.80;;;;;;5089341;28;20469;-34
2021/05/26 01:39:32;;;;;;;1.33;1.23;;;21.20;57.50;;;;;;5096294;28;20039;-34
2021/05/26 01:41:58;;;;;;;2.50;1.50;;;21.10;57.50;;;;;;5093722;28;20043;-33
2021/05/26 01:44:25;;;;;;;1.90;1.33;;;21.10;57.50;;;;;;5094153;28;20016;-33
2021/05/26 01:46:50;;;;;;;1.70;1.60;;;21.10;57.40;;;;;;5090887;28;20039;-34
2021/05/26 01:49:16;;;;;;;1.20;1.02;;;21.20;57.40;;;;;;5091120;28;20021;-34
2021/05/26 01:51:42;;;;;;;1.10;1.00;;;21.10;57.50;;;;;;5094044;28;20174;-33
2021/05/26 01:54:07;;;;;;;1.67;1.20;;;21.20;57.20;;;;;;5092165;28;20031;-34
2021/05/26 01:56:34;;;;;;;1.08;1.00;;;21.10;57.50;;;;;;5095291;28;20036;-33
2021/05/26 01:59:00;;;;;;;1.27;1.10;;;21.10;57.40;;;;;;5093332;28;20570;-34
2021/05/26 02:01:25;;;;;;;1.40;1.30;;;21.00;57.70;;;;;;5087280;28;20076;-34
2021/05/26 02:03:51;;;;;;;1.50;1.40;;;21.00;57.70;;;;;;5092522;28;20032;-34
2021/05/26 02:06:17;;;;;;;0.95;0.95;;;21.00;57.90;;;;;;5095148;28;20032;-33
2021/05/26 02:08:46;;;;;;;1.27;1.17;;;21.00;58.40;;;;;;5093483;28;20039;-33
2021/05/26 02:14:00;;;;;;;1.30;0.90;;;21.10;57.60;;;;;;5093221;28;20423;-33
2021/05/26 02:16:26;;;;;;;2.42;1.20;;;21.20;57.40;;;;;;5072861;28;20046;-35
2021/05/26 02:18:52;;;;;;;0.93;0.93;;;21.20;57.20;;;;;;5094610;28;20028;-34
2021/05/26 02:21:17;;;;;;;1.30;1.20;;;21.30;57.10;;;;;;5092327;28;20090;-35
2021/05/26 02:23:43;;;;;;;0.80;0.80;;;21.30;57.00;;;;;;5094460;28;20028;-33
2021/05/26 02:26:08;;;;;;;1.50;1.40;;;21.30;57.80;;;;;;5077510;28;20111;-33
2021/05/26 02:28:34;;;;;;;1.25;1.15;;;21.20;57.40;;;;;;5088738;28;20027;-36
2021/05/26 02:30:59;;;;;;;1.08;0.90;;;21.20;57.60;;;;;;5089374;28;20445;-35
2021/05/26 02:33:25;;;;;;;1.20;1.10;;;21.00;57.80;;;;;;5091784;28;20123;-34
2021/05/26 02:35:51;;;;;;;0.95;0.93;;;21.10;57.80;;;;;;5099922;28;20577;-34
2021/05/26 02:38:16;;;;;;;1.27;1.10;;;21.10;57.90;;;;;;5093006;28;20026;-34
2021/05/26 02:40:43;;;;;;;1.27;1.17;;;21.10;57.70;;;;;;5092611;28;20031;-34
2021/05/26 02:43:08;;;;;;;1.30;1.00;;;21.10;57.70;;;;;;5089481;28;20100;-34
2021/05/26 02:45:34;;;;;;;1.20;1.13;;;21.10;57.60;;;;;;5095934;28;20119;-34
2021/05/26 02:48:00;;;;;;;1.25;1.00;;;21.20;57.40;;;;;;5104499;28;20504;-33
2021/05/26 02:50:25;;;;;;;0.90;0.90;;;21.10;57.60;;;;;;5097342;28;20044;-33
2021/05/26 02:52:51;;;;;;;1.30;0.77;;;21.10;57.50;;;;;;5094436;28;20106;-34
2021/05/26 02:55:17;;;;;;;1.40;0.93;;;21.10;57.30;;;;;;5089304;28;20032;-34
2021/05/26 02:57:43;;;;;;;2.38;0.70;;;21.10;57.50;;;;;;5093490;28;20043;-32
2021/05/26 03:00:09;;;;;;;1.40;1.05;;;21.10;57.60;;;;;;5089783;28;20048;-35
2021/05/26 03:02:35;;;;;;;1.00;1.00;;;21.10;57.60;;;;;;5091794;28;20095;-35
2021/05/26 03:05:01;;;;;;;1.20;1.10;;;21.10;57.60;;;;;;5091355;28;20111;-34
2021/05/26 03:07:26;;;;;;;1.15;1.05;;;21.00;57.70;;;;;;5096972;28;20027;-34
2021/05/26 03:09:52;;;;;;;1.00;0.90;;;20.90;58.00;;;;;;5090866;28;20028;-34
2021/05/26 03:12:17;;;;;;;0.90;0.90;;;20.90;58.10;;;;;;5093143;28;20082;-34
2021/05/26 03:14:43;;;;;;;1.20;0.70;;;20.80;58.10;;;;;;5089876;28;20028;-34
2021/05/26 03:17:09;;;;;;;0.77;0.77;;;20.80;59.00;;;;;;5084201;28;20437;-33
2021/05/26 03:19:34;;;;;;;0.70;0.70;;;20.80;58.30;;;;;;5089954;28;20034;-34
2021/05/26 03:22:00;;;;;;;0.75;0.68;;;20.80;58.10;;;;;;5089753;28;20047;-34
2021/05/26 03:24:25;;;;;;;0.63;0.63;;;20.80;58.90;;;;;;5097807;28;20535;-34
2021/05/26 03:26:51;;;;;;;0.73;0.70;;;20.90;58.10;;;;;;5107670;28;20024;-34
2021/05/26 03:29:17;;;;;;;1.13;0.80;;;20.90;57.90;;;;;;5093567;28;20110;-35
2021/05/26 03:31:42;;;;;;;0.90;0.90;;;20.90;57.90;;;;;;5087956;28;20397;-34
2021/05/26 03:34:08;;;;;;;0.80;0.80;;;21.00;57.90;;;;;;5074814;28;20095;-33
2021/05/26 03:36:33;;;;;;;0.82;0.82;;;20.90;57.90;;;;;;5095708;28;20050;-34
2021/05/26 03:38:59;;;;;;;0.77;0.73;;;21.00;57.80;;;;;;5099136;28;20077;-34
2021/05/26 03:41:25;;;;;;;1.80;0.68;;;21.00;57.70;;;;;;5090099;28;20651;-34
2021/05/26 03:43:50;;;;;;;0.70;0.70;;;21.10;57.70;;;;;;5084594;28;20043;-34
2021/05/26 03:46:16;;;;;;;1.00;0.80;;;21.10;57.60;;;;;;5089690;28;20444;-34
2021/05/26 03:48:41;;;;;;;0.70;0.70;;;21.20;57.90;;;;;;5090359;28;20115;-34
2021/05/26 03:51:07;;;;;;;0.68;0.68;;;21.20;57.20;;;;;;5103449;28;20435;-33
2021/05/26 03:53:32;;;;;;;0.70;0.70;;;21.30;57.10;;;;;;5097807;28;20031;-35
2021/05/26 03:55:58;;;;;;;0.70;0.70;;;21.30;57.00;;;;;;5100457;28;20490;-35
2021/05/26 03:58:23;;;;;;;0.80;0.80;;;21.30;57.00;;;;;;5089905;28;20082;-34
2021/05/26 04:00:49;;;;;;;0.80;0.80;;;21.30;56.90;;;;;;5094646;28;20052;-34
2021/05/26 04:03:15;;;;;;;0.70;0.70;;;21.40;56.80;;;;;;5093071;28;20059;-33
2021/05/26 04:05:40;;;;;;;0.77;0.77;;;21.40;56.80;;;;;;5097431;28;20525;-34
2021/05/26 04:08:06;;;;;;;0.90;0.73;;;21.30;56.90;;;;;;5086227;28;20020;-34
2021/05/26 04:10:32;;;;;;;0.57;0.57;;;21.30;57.60;;;;;;5106716;28;20082;-34
2021/05/26 04:12:57;;;;;;;0.70;0.70;;;21.30;56.90;;;;;;5092925;28;20032;-34
2021/05/26 04:15:23;;;;;;;0.60;0.60;;;21.40;56.80;;;;;;5095627;28;20043;-35
2021/05/26 04:17:48;;;;;;;0.57;0.57;;;21.40;56.80;;;;;;5094261;28;20115;-34
2021/05/26 04:20:14;;;;;;;0.70;0.70;;;21.40;56.70;;;;;;5091651;28;20070;-34
2021/05/26 04:22:39;;;;;;;0.85;0.70;;;21.30;56.70;;;;;;5093664;28;20375;-34
2021/05/26 04:25:06;;;;;;;0.63;0.63;;;21.30;57.40;;;;;;5094177;28;20056;-34
2021/05/26 04:27:32;;;;;;;0.70;0.70;;;21.30;56.90;;;;;;5080870;28;20371;-34
2021/05/26 04:29:59;;;;;;;1.20;0.70;;;21.30;56.90;;;;;;5098021;28;20067;-34
2021/05/26 04:32:24;;;;;;;0.90;0.90;;;21.30;56.80;;;;;;5096302;28;20034;-34
2021/05/26 04:34:50;;;;;;;0.80;0.80;;;21.30;57.20;;;;;;5093411;28;20024;-34
2021/05/26 04:37:17;;;;;;;0.75;0.75;;;21.10;57.90;;;;;;5093509;28;20035;-34
2021/05/26 04:39:46;;;;;;;0.68;0.68;;;20.90;58.60;;;;;;5095794;28;20016;-33
2021/05/26 04:42:11;;;;;;;1.00;0.90;;;20.90;58.40;;;;;;5090277;28;20036;-35
2021/05/26 04:44:37;;;;;;;1.48;1.38;;;21.00;59.40;;;;;;5102557;28;20489;-34
2021/05/26 04:47:03;;;;;;;2.45;1.13;;;21.10;61.90;;;;;;5090101;28;20028;-33
2021/05/26 04:49:28;;;;;;;2.65;1.00;;;21.20;61.40;;;;;;5093183;28;20046;-34
2021/05/26 04:51:54;;;;;;;1.95;1.30;;;21.20;61.30;;;;;;5092645;28;20086;-34
2021/05/26 04:54:19;;;;;;;1.83;0.93;;;21.10;61.60;;;;;;5098453;28;20529;-34
2021/05/26 04:56:45;;;;;;;0.98;0.88;;;21.10;61.70;;;;;;5090022;28;20374;-38
2021/05/26 04:59:12;;;;;;;1.08;0.90;;;21.10;61.10;;;;;;5093168;28;20496;-35
2021/05/26 05:01:38;;;;;;;1.00;0.90;;;21.20;61.30;;;;;;5088242;28;20046;-35
2021/05/26 05:04:03;;;;;;;1.00;0.90;;;21.20;60.50;;;;;;5090126;28;20032;-36
2021/05/26 05:06:29;;;;;;;0.80;0.80;;;21.30;60.40;;;;;;5095939;28;20028;-35
2021/05/26 05:08:55;;;;;;;1.00;0.90;;;21.30;60.20;;;;;;5091716;28;20085;-35
2021/05/26 05:11:20;;;;;;;1.23;0.82;;;21.20;59.50;;;;;;5091173;28;20402;-35
2021/05/26 05:13:47;;;;;;;1.13;0.85;;;21.20;60.00;;;;;;5092025;28;20103;-35
2021/05/26 05:16:12;;;;;;;0.68;0.60;;;21.00;59.10;;;;;;5089083;28;20558;-35
2021/05/26 05:18:38;;;;;;;0.60;0.60;;;20.80;60.20;;;;;;5090786;28;20024;-36
2021/05/26 05:21:04;;;;;;;1.25;0.60;;;20.70;60.00;;;;;;5091789;28;20059;-36
2021/05/26 05:23:30;;;;;;;1.02;0.93;;;20.70;60.20;;;;;;5091252;28;20061;-36
2021/05/26 05:25:55;;;;;;;1.33;0.60;;;20.70;60.50;;;;;;5091116;28;20080;-36
2021/05/26 05:28:21;;;;;;;2.10;0.70;;;20.70;60.00;;;;;;5090535;28;20062;-34
2021/05/26 05:30:46;;;;;;;0.55;0.55;;;20.70;60.00;;;;;;5074389;28;20032;-35
2021/05/26 05:33:12;;;;;;;0.60;0.60;;;20.80;59.50;;;;;;5095301;28;20024;-34
2021/05/26 05:35:38;;;;;;;0.57;0.50;;;20.80;59.80;;;;;;5099819;28;20027;-34
2021/05/26 05:38:03;;;;;;;0.57;0.57;;;20.70;59.80;;;;;;5098200;28;20358;-34
2021/05/26 05:40:29;;;;;;;0.60;0.60;;;20.60;59.50;;;;;;5091028;28;20134;-34
2021/05/26 05:42:54;;;;;;;0.57;0.57;;;20.70;60.40;;;;;;5100729;28;20031;-34
2021/05/26 05:45:20;;;;;;;0.95;0.70;;;20.60;60.60;;;;;;5097553;28;20448;-34
2021/05/26 05:47:47;;;;;;;0.40;0.40;;;20.60;60.30;;;;;;5101902;28;20024;-33
2021/05/26 05:50:16;;;;;;;0.50;0.50;;;20.60;60.00;;;;;;5101391;28;20031;-34
2021/05/26 05:52:48;;;;;;;2.42;0.60;;;20.60;60.70;;;;;;5071036;28;20039;-34
2021/05/26 05:55:14;;;;;;;1.70;0.40;;;20.60;60.40;;;;;;5079565;28;20110;-34
2021/05/26 05:57:39;;;;;;;2.47;0.95;;;20.60;61.30;;;;;;5079415;28;20442;-34
2021/05/26 06:00:06;;;;;;;0.70;0.70;;;20.70;61.70;;;;;;5086156;28;20243;-34
2021/05/26 06:02:31;;;;;;;0.85;0.60;;;20.80;61.50;;;;;;5094782;28;20028;-35
2021/05/26 06:04:57;;;;;;;2.15;0.85;;;20.80;60.90;;;;;;5091318;28;20043;-33
2021/05/26 06:07:22;;;;;;;1.52;0.75;;;20.70;61.20;;;;;;5091614;28;20398;-36
2021/05/26 06:09:48;;;;;;;1.55;0.40;;;20.80;61.30;;;;;;5076672;28;20047;-36
2021/05/26 06:12:14;;;;;;;2.10;0.47;;;20.80;60.00;;;;;;5096875;28;20039;-35
2021/05/26 06:14:39;;;;;;;2.47;0.68;;;20.80;60.80;;;;;;5092201;28;20038;-35
2021/05/26 06:17:05;;;;;;;1.65;0.73;;;20.80;60.10;;;;;;5093452;28;20032;-35
2021/05/26 06:19:30;;;;;;;0.90;0.60;;;20.80;61.00;;;;;;5091586;28;20070;-35
2021/05/26 06:21:56;;;;;;;1.90;0.70;;;20.70;61.70;;;;;;5091083;28;20119;-35
2021/05/26 06:24:21;;;;;;;4.57;0.73;;;20.60;62.20;;;;;;5096043;28;20028;-34
2021/05/26 06:26:47;;;;;;;1.15;0.50;;;20.60;62.40;;;;;;5091486;28;20024;-35
2021/05/26 06:29:13;;;;;;;0.88;0.68;;;20.60;60.00;;;;;;5090624;28;20024;-34
2021/05/26 06:31:38;;;;;;;1.13;0.50;;;20.70;61.40;;;;;;5094334;28;20024;-35
2021/05/26 06:34:04;;;;;;;1.63;0.70;;;20.70;61.00;;;;;;5088103;28;20485;-34
2021/05/26 06:36:36;;;;;;;0.98;0.57;;;20.80;60.40;;;;;;5110602;28;20031;-34
2021/05/26 06:39:02;;;;;;;0.50;0.50;;;20.60;59.80;;;;;;5101101;28;20032;-35
2021/05/26 06:41:27;;;;;;;0.98;0.50;;;20.60;61.60;;;;;;5093401;28;20405;-35
2021/05/26 06:43:53;;;;;;;0.52;0.43;;;20.60;62.30;;;;;;5092901;28;20023;-35
2021/05/26 06:46:19;;;;;;;1.40;0.60;;;20.70;61.20;;;;;;5089566;28;20099;-35
2021/05/26 06:48:44;;;;;;;2.22;0.73;;;20.90;60.40;;;;;;5067929;28;20040;-35
2021/05/26 06:51:10;;;;;;;1.38;0.55;;;21.00;59.80;;;;;;5095365;28;20024;-35
2021/05/26 06:53:35;;;;;;;0.70;0.40;;;21.10;59.40;;;;;;5093598;28;20052;-35
2021/05/26 06:56:01;;;;;;;1.75;0.47;;;21.20;59.30;;;;;;5093067;28;20409;-36
2021/05/26 06:58:26;;;;;;;1.38;0.63;;;21.20;59.30;;;;;;5088391;28;20030;-34
2021/05/26 07:00:52;;;;;;;0.57;0.40;;;21.20;59.20;;;;;;5091415;28;20045;-36
2021/05/26 07:03:18;;;;;;;1.25;0.60;;;21.30;59.20;;;;;;5095078;28;20048;-35
2021/05/26 07:05:44;;;;;;;1.95;0.60;;;21.30;59.20;;;;;;5092442;28;20448;-34
2021/05/26 07:08:10;;;;;;;1.00;0.60;;;21.30;59.10;;;;;;5094863;28;20040;-35
2021/05/26 07:10:35;;;;;;;0.82;0.50;;;21.30;58.60;;;;;;5105373;28;20489;-35
2021/05/26 07:13:01;;;;;;;0.80;0.60;;;21.20;58.90;;;;;;5088826;28;20160;-35
2021/05/26 07:15:26;;;;;;;1.52;0.57;;;20.90;59.10;;;;;;5096053;28;20095;-35
2021/05/26 07:17:56;;;;;;;1.85;0.50;;;20.70;59.40;;;;;;5095033;28;20032;-36
2021/05/26 07:20:22;;;;;;;3.75;0.40;;;20.60;60.10;;;;;;5094794;28;20107;-36
2021/05/26 07:22:47;;;;;;;1.98;0.50;;;20.50;60.80;;;;;;5092497;28;20081;-34
2021/05/26 07:25:13;;;;;;;2.00;0.50;;;20.50;61.40;;;;;;5073454;28;20020;-34
2021/05/26 07:27:39;;;;;;;1.83;0.60;;;20.50;60.70;;;;;;5094140;28;20036;-36
2021/05/26 07:30:05;;;;;;;2.35;0.47;;;20.60;59.10;;;;;;5094682;28;20052;-35
2021/05/26 07:32:31;;;;;;;0.40;0.40;;;20.60;59.20;;;;;;5092407;28;20101;-35
2021/05/26 07:34:56;;;;;;;0.57;0.40;;;20.60;59.80;;;;;;5092432;28;20864;-36
2021/05/26 07:37:22;;;;;;;0.40;0.30;;;20.60;61.00;;;;;;5088699;28;20048;-36
2021/05/26 07:39:47;;;;;;;4.70;0.65;;;20.50;59.90;;;;;;5092136;28;20020;-34
2021/05/26 07:42:14;;;;;;;0.80;0.50;;;20.60;60.10;;;;;;5093806;28;20488;-34
2021/05/26 07:44:40;;;;;;;1.30;0.35;;;20.60;60.80;;;;;;5095838;28;20036;-34
2021/05/26 07:47:05;;;;;;;0.25;0.25;;;20.60;60.50;;;;;;5095938;28;20056;-34
2021/05/26 07:49:31;;;;;;;0.68;0.22;;;20.50;60.50;;;;;;5095765;28;20043;-39
2021/05/26 07:52:02;;;;;;;3.58;0.50;;;20.40;60.60;;;;;;5075811;28;20123;-38
2021/05/26 07:54:28;;;;;;;1.70;0.45;;;20.40;60.50;;;;;;5081560;28;20396;-34
2021/05/26 07:56:55;;;;;;;0.85;0.57;;;20.50;60.50;;;;;;5097467;28;20032;-34
2021/05/26 07:59:21;;;;;;;2.13;0.50;;;20.40;60.30;;;;;;5097137;28;20050;-36
2021/05/26 08:01:47;;;;;;;0.43;0.35;;;20.50;60.00;;;;;;5097220;28;20039;-35
2021/05/26 08:04:12;;;;;;;2.50;0.43;;;20.40;60.10;;;;;;5092759;28;20009;-34
2021/05/26 08:06:38;;;;;;;0.50;0.50;;;20.50;60.20;;;;;;5097595;28;20509;-37
2021/05/26 08:09:04;;;;;;;0.70;0.40;;;20.50;59.90;;;;;;5098239;28;20021;-34
2021/05/26 08:11:30;;;;;;;0.30;0.30;;;20.50;59.90;;;;;;5097178;28;20470;-34
2021/05/26 08:13:57;;;;;;;0.55;0.40;;;20.50;59.70;;;;;;5097181;28;20103;-34
2021/05/26 08:16:25;;;;;;;1.17;0.40;;;20.50;60.20;;;;;;5092121;28;20103;-36
2021/05/26 08:18:51;;;;;;;0.52;0.30;;;20.50;60.10;;;;;;5094245;28;20482;-34
2021/05/26 08:21:17;;;;;;;0.30;0.30;;;20.40;61.50;;;;;;5097782;28;20509;-33
2021/05/26 08:23:43;;;;;;;0.38;0.20;;;20.40;59.90;;;;;;5094753;28;20032;-34
2021/05/26 08:26:14;;;;;;;0.55;0.25;;;20.40;60.30;;;;;;5096842;28;20428;-36
2021/05/26 08:28:40;;;;;;;1.38;0.52;;;20.40;59.80;;;;;;5095244;28;20472;-33
2021/05/26 08:31:06;;;;;;;0.47;0.30;;;20.50;60.00;;;;;;5091278;28;20089;-35
2021/05/26 08:33:31;;;;;;;0.47;0.30;;;20.40;60.00;;;;;;5099220;28;20382;-33
2021/05/26 08:35:57;;;;;;;0.52;0.40;;;20.40;60.00;;;;;;5080043;28;20421;-34
2021/05/26 08:38:22;;;;;;;0.40;0.30;;;20.40;60.00;;;;;;5096503;28;20051;-33
2021/05/26 08:40:49;;;;;;;0.50;0.30;;;20.40;59.70;;;;;;5095118;28;20027;-35
2021/05/26 08:43:15;;;;;;;0.43;0.30;;;20.50;59.90;;;;;;5093695;28;20028;-36
2021/05/26 08:45:41;;;;;;;0.43;0.38;;;20.50;59.60;;;;;;5095761;28;20111;-33
2021/05/26 08:48:07;;;;;;;0.40;0.30;;;20.60;59.60;;;;;;5096730;28;20127;-33
2021/05/26 08:50:32;;;;;;;0.40;0.40;;;20.60;59.30;;;;;;5096967;28;20028;-34
2021/05/26 08:52:58;;;;;;;0.52;0.43;;;20.60;59.40;;;;;;5094555;28;20020;-33
2021/05/26 08:55:24;;;;;;;1.38;0.30;;;20.60;59.40;;;;;;5094243;28;20043;-34
2021/05/26 08:57:49;;;;;;;0.30;0.30;;;20.70;59.20;;;;;;5075484;28;20032;-32
2021/05/26 09:00:15;;;;;;;0.30;0.30;;;20.60;59.00;;;;;;5098764;28;20052;-32
2021/05/26 09:02:41;;;;;;;0.40;0.30;;;20.70;59.00;;;;;;5096318;28;20067;-36
2021/05/26 09:05:20;;;;;;;1.40;0.20;;;20.70;59.10;;;;;;5094688;28;20031;-34
2021/05/26 09:07:46;;;;;;;0.30;0.30;;;20.70;58.90;;;;;;5094452;28;20023;-34
2021/05/26 09:10:11;;;;;;;1.17;0.45;;;20.60;58.90;;;;;;5091319;28;20036;-34
2021/05/26 09:12:41;;;;;;;0.75;0.38;;;20.70;59.10;;;;;;5096780;28;20043;-35
2021/05/26 09:15:13;;;;;;;0.65;0.20;;;20.70;58.80;;;;;;5097459;28;20103;-34
2021/05/26 09:17:39;;;;;;;0.40;0.22;;;20.80;58.50;;;;;;5095975;28;20439;-34
2021/05/26 09:20:11;;;;;;;0.30;0.30;;;20.80;58.70;;;;;;5094697;28;20486;-35
2021/05/26 09:22:37;;;;;;;0.55;0.20;;;20.80;58.70;;;;;;5095646;28;20038;-36
2021/05/26 09:25:07;;;;;;;0.50;0.30;;;20.80;58.60;;;;;;5091428;28;20048;-32
2021/05/26 09:27:33;;;;;;;0.20;0.20;;;20.90;58.40;;;;;;5106391;28;20072;-34
2021/05/26 09:29:58;;;;;;;0.20;0.20;;;20.90;58.50;;;;;;5094264;28;20036;-34
2021/05/26 09:32:26;;;;;;;1.10;0.30;;;20.80;59.10;;;;;;5094069;28;20024;-34
2021/05/26 09:34:56;;;;;;;0.20;0.20;;;20.90;58.40;;;;;;5095525;28;20031;-35
2021/05/26 09:37:23;;;;;;;0.22;0.22;;;20.90;58.40;;;;;;5093461;28;20059;-35
2021/05/26 09:39:57;;;;;;;0.40;0.10;;;20.90;58.30;;;;;;5093232;28;20028;-36
2021/05/26 09:42:45;;;;;;;0.45;0.20;;;21.00;58.30;;;;;;5076236;28;20118;-38
2021/05/26 09:45:20;;;;;;;0.50;0.20;;;20.90;58.30;;;;;;5095998;28;20059;-34
2021/05/26 09:47:47;;;;;;;0.40;0.28;;;21.00;58.30;;;;;;5095358;28;20028;-35
2021/05/26 09:50:22;;;;;;;0.40;0.30;;;21.00;58.30;;;;;;5095101;28;20490;-35
2021/05/26 09:53:18;;;;;;;0.90;0.40;;;20.90;58.20;;;;;;5093939;28;20024;-35
2021/05/26 09:55:45;;;;;;;0.25;0.25;;;21.00;58.00;;;;;;5092595;28;20032;-38
2021/05/26 09:58:12;;;;;;;0.43;0.20;;;21.00;58.10;;;;;;5090102;28;20024;-34
2021/05/26 10:00:39;;;;;;;0.25;0.20;;;21.00;57.90;;;;;;5095318;28;20402;-34
2021/05/26 10:03:05;;;;;;;0.43;0.43;;;21.00;58.00;;;;;;5096108;28;20538;-34
2021/05/26 10:05:30;;;;;;;0.10;0.10;;;21.00;58.10;;;;;;5089580;28;20103;-35
2021/05/26 10:07:57;;;;;;;0.30;0.30;;;20.90;57.70;;;;;;5077070;28;22531;-34
2021/05/26 10:10:28;;;;;;;0.20;0.20;;;20.80;58.70;;;;;;5081941;28;20040;-34
2021/05/26 10:12:57;;;;;;;0.30;0.30;;;20.70;58.70;;;;;;5075585;28;20040;-34
2021/05/26 10:15:23;;;;;;;0.30;0.30;;;20.60;58.50;;;;;;5092777;28;20032;-35
2021/05/26 10:17:53;;;;;;;0.13;0.10;;;20.70;58.40;;;;;;5081764;28;20038;-34
2021/05/26 10:20:22;;;;;;;0.10;0.10;;;20.60;58.40;;;;;;5081992;28;20017;-35
2021/05/26 10:22:50;;;;;;;0.30;0.20;;;20.50;58.80;;;;;;5082015;28;20063;-35
2021/05/26 10:25:16;;;;;;;0.80;0.35;;;20.40;59.20;;;;;;5068756;28;20016;-35
2021/05/26 10:27:50;;;;;;;0.50;0.22;;;20.40;59.50;;;;;;5074822;28;20719;-34
2021/05/26 10:30:17;;;;;;;0.20;0.20;;;20.40;59.60;;;;;;5082637;28;20024;-34
2021/05/26 10:32:55;;;;;;;0.40;0.40;;;20.30;60.00;;;;;;5080699;28;20106;-34
2021/05/26 10:35:25;;;;;;;0.60;0.60;;;20.30;60.30;;;;;;5084795;28;20024;-34
2021/05/26 10:38:02;;;;;;;0.45;0.45;;;20.40;60.90;;;;;;5078973;28;20103;-35
2021/05/26 10:40:31;;;;;;;2.00;0.60;;;20.40;60.30;;;;;;5086401;28;20038;-34
2021/05/26 10:43:19;;;;;;;7.50;0.73;;;20.60;60.50;;;;;;5081580;28;20066;-35
2021/05/26 10:45:45;;;;;;;0.65;0.57;;;20.50;60.50;;;;;;5077848;28;20028;-33
2021/05/26 10:48:11;;;;;;;0.65;0.50;;;20.50;60.50;;;;;;5084820;28;20066;-35
2021/05/26 10:50:55;;;;;;;0.57;0.50;;;20.40;60.60;;;;;;5090024;28;20121;-34
2021/05/26 10:53:22;;;;;;;1.70;0.40;;;20.50;60.70;;;;;;5094951;28;20398;-37
2021/05/26 10:55:49;;;;;;;0.60;0.60;;;20.40;60.40;;;;;;5088684;28;20401;-34
2021/05/26 10:58:24;;;;;;;0.47;0.38;;;20.50;61.20;;;;;;5092191;28;20040;-36
2021/05/26 11:01:09;;;;;;;1.00;0.60;;;20.50;60.40;;;;;;5087425;28;20052;-36
2021/05/26 11:03:36;;;;;;;0.63;0.55;;;20.80;61.10;;;;;;5092570;28;20042;-40
2021/05/26 11:06:18;;;;;;;1.43;0.40;;;20.80;60.00;;;;;;4733556;28;10001064;-42
2021/05/26 11:08:48;;;;;;;0.80;0.57;;;20.70;61.10;;;;;;4735914;28;9999916;-33
2021/05/26 11:11:25;;;;;;;0.73;0.40;;;20.70;60.90;;;;;;5081738;28;20129;-35
2021/05/26 11:14:00;;;;;;;4.03;0.45;;;20.70;60.90;;;;;;5090371;28;20031;-35
2021/05/26 11:17:01;;;;;;;2.92;0.50;;;20.70;61.00;;;;;;5086963;28;20066;-36
2021/05/26 11:19:27;;;;;;;0.40;0.30;;;20.70;60.30;;;;;;5062470;28;20040;-36
2021/05/26 11:22:01;;;;;;;0.75;0.22;;;20.90;60.20;;;;;;5091132;28;20524;-34
2021/05/26 11:24:27;;;;;;;6.35;0.30;;;20.80;60.60;;;;;;5096854;28;20024;-36
2021/05/26 11:26:53;;;;;;;0.82;0.50;;;21.00;61.30;;;;;;5092695;28;20493;-34
2021/05/26 11:29:30;;;;;;;0.40;0.35;;;21.10;61.20;;;;;;5077443;28;20058;-38
2021/05/26 11:32:13;;;;;;;0.38;0.30;;;20.90;62.00;;;;;;5091527;28;20027;-31
2021/05/26 11:34:42;;;;;;;0.20;0.20;;;20.70;61.30;;;;;;5090363;28;20020;-33
2021/05/26 11:37:08;;;;;;;1.70;0.40;;;20.70;61.20;;;;;;5103673;28;20031;-35
2021/05/26 11:39:34;;;;;;;0.35;0.20;;;20.70;61.10;;;;;;5104450;28;20038;-43
2021/05/26 11:42:16;;;;;;;1.83;0.30;;;20.80;60.30;;;;;;5103269;28;20028;-35
2021/05/26 11:45:01;;;;;;;0.52;0.30;;;20.90;60.50;;;;;;5095940;28;20028;-35
2021/05/26 11:47:44;;;;;;;0.20;0.20;;;21.00;60.00;;;;;;5093510;28;20161;-39
2021/05/26 11:50:13;;;;;;;1.30;0.38;;;21.10;60.20;;;;;;5090560;28;20055;-36
2021/05/26 11:52:39;;;;;;;1.98;0.30;;;21.10;60.00;;;;;;5094481;28;20028;-39
2021/05/26 11:55:05;;;;;;;0.30;0.22;;;21.10;60.30;;;;;;5087355;28;20039;-38
2021/05/26 11:57:34;;;;;;;1.60;0.30;;;21.10;59.80;;;;;;5102779;28;20023;-41
2021/05/26 12:00:06;;;;;;;0.65;0.30;;;21.10;60.30;;;;;;5093546;28;20043;-42
2021/05/26 12:02:32;;;;;;;0.65;0.28;;;21.10;60.20;;;;;;5087406;28;20066;-36
2021/05/26 12:04:58;;;;;;;0.50;0.30;;;21.00;60.10;;;;;;5081847;28;20522;-36
2021/05/26 12:07:28;;;;;;;0.40;0.30;;;21.10;60.00;;;;;;5069695;28;20570;-35
2021/05/26 12:09:55;;;;;;;0.32;0.30;;;21.00;59.70;;;;;;5086422;28;20052;-36
2021/05/26 12:12:21;;;;;;;0.43;0.20;;;21.10;59.80;;;;;;5079051;28;20089;-35
2021/05/26 12:14:47;;;;;;;2.60;0.30;;;21.20;59.80;;;;;;5082680;28;20032;-35
2021/05/26 12:17:14;;;;;;;1.92;0.40;;;21.20;59.50;;;;;;5075314;28;20494;-35
2021/05/26 12:19:40;;;;;;;2.97;0.25;;;21.20;59.50;;;;;;5083158;28;20028;-34
2021/05/26 12:22:13;;;;;;;0.40;0.28;;;21.20;59.50;;;;;;5068112;28;20033;-35
2021/05/26 12:25:01;;;;;;;0.30;0.30;;;21.20;59.40;;;;;;5084354;28;20043;-35
2021/05/26 12:27:30;;;;;;;0.38;0.20;;;21.20;59.50;;;;;;5085336;28;20039;-36
2021/05/26 12:30:10;;;;;;;1.10;0.30;;;21.20;59.50;;;;;;5079831;28;20103;-35
2021/05/26 12:32:35;;;;;;;0.90;0.30;;;21.20;59.30;;;;;;5082828;28;20028;-34
2021/05/26 12:35:01;;;;;;;0.38;0.22;;;21.20;59.30;;;;;;5086588;28;20027;-33
2021/05/26 12:37:44;;;;;;;0.20;0.20;;;21.20;59.50;;;;;;5083500;28;20032;-33
2021/05/26 12:40:17;;;;;;;0.52;0.20;;;21.20;59.60;;;;;;5076061;28;20059;-35
2021/05/26 12:42:42;;;;;;;1.00;0.30;;;21.20;59.50;;;;;;5065388;28;20044;-35
2021/05/26 12:45:17;;;;;;;1.58;0.30;;;21.20;59.50;;;;;;5076448;28;20107;-35
2021/05/26 12:47:43;;;;;;;0.30;0.20;;;21.20;59.50;;;;;;5082493;28;20060;-33
2021/05/26 12:50:29;;;;;;;0.35;0.25;;;21.20;59.50;;;;;;5083708;28;20117;-34